createdAt,value
2019-05-12T00:00:21.260Z,83.03
2019-05-12T00:02:49.898Z,83.12
2019-05-12T00:05:18.850Z,83.23
2019-05-12T00:07:48.757Z,83.25
2019-05-12T00:10:18.274Z,83.20
2019-05-12T00:12:48.386Z,83.26
2019-05-12T00:15:19.345Z,83.27
2019-05-12T00:17:48.692Z,83.32
2019-05-12T00:20:18.589Z,83.30
2019-05-12T00:22:55.276Z,83.51
2019-05-12T00:25:23.808Z,83.56
2019-05-12T00:27:52.380Z,83.61
2019-05-12T00:30:34.780Z,83.71
2019-05-12T00:33:04.914Z,83.86
2019-05-12T00:35:33.928Z,83.76
2019-05-12T00:38:02.858Z,83.96
2019-05-12T00:40:31.534Z,83.94
2019-05-12T00:43:00.286Z,83.92
2019-05-12T00:45:29.509Z,83.89
2019-05-12T00:47:58.614Z,83.93
2019-05-12T00:50:28.878Z,83.96
2019-05-12T00:52:58.244Z,83.88
2019-05-12T00:55:28.972Z,83.94
2019-05-12T00:57:58.103Z,84.00
2019-05-12T01:00:29.102Z,84.02
2019-05-12T01:02:58.350Z,84.12
2019-05-12T01:05:29.369Z,84.19
2019-05-12T01:07:58.255Z,84.13
2019-05-12T01:10:28.582Z,84.13
2019-05-12T01:12:58.247Z,84.20
2019-05-12T01:15:28.676Z,84.20
2019-05-12T01:17:59.196Z,84.31
2019-05-12T01:20:29.485Z,84.23
2019-05-12T01:22:58.332Z,84.30
2019-05-12T01:25:29.019Z,84.48
2019-05-12T01:27:58.999Z,84.50
2019-05-12T01:30:28.589Z,84.69
2019-05-12T01:32:58.386Z,84.74
2019-05-12T01:35:28.306Z,84.76
2019-05-12T01:37:58.711Z,84.75
2019-05-12T01:40:28.549Z,84.75
2019-05-12T01:43:00.166Z,84.89
2019-05-12T01:45:29.133Z,84.94
2019-05-12T01:47:59.223Z,84.96
2019-05-12T01:50:28.644Z,85.04
2019-05-12T01:52:58.744Z,85.14
2019-05-12T01:55:28.422Z,85.29
2019-05-12T01:57:57.979Z,85.22
2019-05-12T02:00:28.340Z,85.19
2019-05-12T02:02:58.397Z,85.22
2019-05-12T02:05:28.183Z,85.19
2019-05-12T02:07:58.693Z,85.19
2019-05-12T02:10:28.605Z,85.26
2019-05-12T02:12:59.277Z,85.22
2019-05-12T02:15:28.248Z,85.32
2019-05-12T02:17:58.841Z,85.38
2019-05-12T02:20:28.747Z,85.42
2019-05-12T02:22:58.477Z,85.44
2019-05-12T02:25:28.801Z,85.32
2019-05-12T02:27:58.333Z,85.18
2019-05-12T02:30:30.340Z,85.10
2019-05-12T02:32:59.345Z,85.20
2019-05-12T02:35:28.028Z,85.34
2019-05-12T02:37:56.551Z,85.40
2019-05-12T02:40:25.793Z,85.48
2019-05-12T02:42:56.022Z,85.64
2019-05-12T02:45:25.598Z,85.41
2019-05-12T02:47:54.723Z,85.39
2019-05-12T02:50:37.566Z,85.46
2019-05-12T02:53:07.435Z,85.53
2019-05-12T02:55:37.346Z,85.52
2019-05-12T02:58:06.549Z,85.49
2019-05-12T03:00:36.680Z,85.50
2019-05-12T03:03:07.802Z,85.53
2019-05-12T03:05:37.169Z,85.42
2019-05-12T03:08:05.858Z,85.44
2019-05-12T03:10:36.360Z,85.64
2019-05-12T03:13:05.528Z,85.51
2019-05-12T03:15:36.715Z,85.48
2019-05-12T03:18:06.451Z,85.65
2019-05-12T03:20:35.892Z,85.76
2019-05-12T03:23:06.304Z,85.86
2019-05-12T03:25:36.836Z,85.95
2019-05-12T03:28:08.870Z,85.89
2019-05-12T03:30:39.306Z,85.91
2019-05-12T03:33:10.274Z,85.76
2019-05-12T03:35:42.982Z,85.74
2019-05-12T03:38:07.871Z,85.88
2019-05-12T03:40:38.410Z,86.13
2019-05-12T03:43:07.205Z,86.10
2019-05-12T03:45:36.470Z,86.34
2019-05-12T03:48:06.427Z,86.35
2019-05-12T03:50:36.133Z,86.36
2019-05-12T03:53:10.147Z,86.40
2019-05-12T03:55:42.019Z,86.46
2019-05-12T03:58:06.727Z,86.56
2019-05-12T04:00:36.325Z,86.44
2019-05-12T04:03:06.352Z,86.84
2019-05-12T04:05:36.290Z,87.05
2019-05-12T04:08:06.923Z,87.11
2019-05-12T04:10:36.853Z,87.05
2019-05-12T04:13:06.273Z,86.89
2019-05-12T04:15:36.505Z,86.90
2019-05-12T04:18:06.481Z,87.08
2019-05-12T04:20:36.421Z,87.14
2019-05-12T04:23:06.707Z,87.10
2019-05-12T04:25:51.701Z,87.45
2019-05-12T04:28:06.193Z,87.64
2019-05-12T04:30:35.829Z,87.47
2019-05-12T04:33:05.782Z,87.61
2019-05-12T04:35:35.590Z,87.35
2019-05-12T04:38:05.382Z,87.43
2019-05-12T04:40:36.005Z,87.39
2019-05-12T04:43:06.580Z,87.27
2019-05-12T04:45:35.908Z,87.41
2019-05-12T04:48:06.269Z,87.34
2019-05-12T04:50:36.161Z,87.40
2019-05-12T04:53:06.579Z,87.28
2019-05-12T04:55:36.302Z,87.15
2019-05-12T04:58:05.980Z,87.07
2019-05-12T05:00:35.918Z,87.07
2019-05-12T05:03:06.048Z,87.09
2019-05-12T05:05:36.258Z,87.29
2019-05-12T05:08:05.650Z,87.29
2019-05-12T05:10:35.052Z,87.29
2019-05-12T05:13:05.812Z,87.47
2019-05-12T05:15:35.284Z,87.62
2019-05-12T05:18:06.605Z,87.88
2019-05-12T05:20:34.995Z,88.32
2019-05-12T05:23:04.041Z,88.51
2019-05-12T05:25:35.161Z,88.30
2019-05-12T05:28:04.781Z,88.36
2019-05-12T05:30:34.252Z,88.22
2019-05-12T05:33:05.104Z,88.38
2019-05-12T05:35:39.705Z,88.34
2019-05-12T05:38:05.731Z,88.30
2019-05-12T05:40:35.809Z,88.38
2019-05-12T05:43:12.636Z,88.48
2019-05-12T05:45:35.679Z,88.51
2019-05-12T05:48:09.807Z,88.29
2019-05-12T05:50:35.244Z,88.34
2019-05-12T05:53:04.303Z,88.45
2019-05-12T05:55:34.548Z,88.36
2019-05-12T05:58:10.258Z,88.53
2019-05-12T06:00:35.069Z,88.48
2019-05-12T06:03:05.606Z,89.02
2019-05-12T06:05:38.176Z,89.04
2019-05-12T06:08:09.533Z,89.06
2019-05-12T06:10:40.049Z,88.75
2019-05-12T06:13:05.895Z,88.89
2019-05-12T06:15:38.813Z,88.94
2019-05-12T06:18:05.503Z,88.90
2019-05-12T06:20:37.718Z,88.85
2019-05-12T06:23:04.696Z,88.88
2019-05-12T06:25:45.555Z,88.83
2019-05-12T06:28:08.789Z,88.94
2019-05-12T06:30:43.764Z,88.77
2019-05-12T06:33:06.126Z,88.68
2019-05-12T06:35:37.422Z,89.05
2019-05-12T06:38:05.420Z,89.02
2019-05-12T06:40:40.260Z,89.23
2019-05-12T06:43:04.817Z,89.13
2019-05-12T06:45:42.049Z,89.47
2019-05-12T06:48:04.882Z,89.35
2019-05-12T06:50:38.918Z,89.28
2019-05-12T06:53:05.350Z,89.30
2019-05-12T06:55:39.003Z,89.23
2019-05-12T06:58:05.289Z,89.43
2019-05-12T07:00:35.322Z,89.65
2019-05-12T07:03:05.119Z,89.71
2019-05-12T07:05:38.504Z,89.43
2019-05-12T07:08:05.276Z,89.33
2019-05-12T07:10:41.188Z,89.37
2019-05-12T07:13:05.811Z,89.37
2019-05-12T07:15:40.121Z,89.67
2019-05-12T07:18:13.707Z,89.84
2019-05-12T07:20:43.636Z,89.70
2019-05-12T07:23:14.200Z,89.58
2019-05-12T07:25:44.548Z,89.30
2019-05-12T07:28:14.475Z,89.45
2019-05-12T07:30:46.721Z,89.49
2019-05-12T07:33:15.437Z,89.17
2019-05-12T07:35:45.094Z,88.95
2019-05-12T07:38:21.163Z,88.93
2019-05-12T07:40:47.018Z,88.87
2019-05-12T07:43:20.506Z,88.75
2019-05-12T07:45:53.938Z,88.61
2019-05-12T07:48:19.987Z,88.34
2019-05-12T07:50:50.342Z,87.96
2019-05-12T07:53:18.819Z,87.54
2019-05-12T07:55:49.422Z,87.36
2019-05-12T07:58:19.333Z,87.31
2019-05-12T08:00:53.991Z,87.08
2019-05-12T08:03:21.181Z,86.95
2019-05-12T08:05:51.288Z,86.79
2019-05-12T08:08:19.083Z,86.44
2019-05-12T08:10:51.366Z,85.84
2019-05-12T08:13:19.588Z,85.22
2019-05-12T08:15:51.340Z,85.37
2019-05-12T08:18:18.579Z,85.09
2019-05-12T08:20:47.121Z,85.24
2019-05-12T08:23:15.794Z,84.70
2019-05-12T08:25:44.268Z,84.17
2019-05-12T08:28:18.218Z,84.22
2019-05-12T08:30:47.476Z,83.74
2019-05-12T08:33:14.614Z,83.59
2019-05-12T08:35:44.061Z,83.82
2019-05-12T08:38:14.446Z,83.35
2019-05-12T08:40:46.394Z,82.77
2019-05-12T08:43:14.991Z,82.81
2019-05-12T08:45:44.435Z,82.64
2019-05-12T08:48:21.489Z,82.22
2019-05-12T08:50:45.977Z,81.78
2019-05-12T08:53:20.491Z,81.54
2019-05-12T08:55:44.135Z,81.97
2019-05-12T08:58:29.853Z,81.75
2019-05-12T09:00:48.346Z,81.84
2019-05-12T09:03:14.335Z,81.95
2019-05-12T09:05:44.534Z,81.88
2019-05-12T09:08:14.246Z,81.33
2019-05-12T09:10:45.070Z,81.05
2019-05-12T09:13:14.654Z,80.65
2019-05-12T09:15:43.923Z,80.37
2019-05-12T09:18:14.508Z,80.36
2019-05-12T09:20:48.811Z,80.45
2019-05-12T09:23:13.719Z,80.17
2019-05-12T09:25:45.133Z,80.15
2019-05-12T09:28:13.876Z,80.50
2019-05-12T09:30:47.665Z,80.34
2019-05-12T09:33:14.073Z,80.72
2019-05-12T09:35:43.821Z,80.21
2019-05-12T09:38:21.347Z,80.03
2019-05-12T09:40:43.859Z,79.19
2019-05-12T09:43:13.641Z,78.61
2019-05-12T09:45:51.503Z,78.87
2019-05-12T09:48:14.134Z,79.44
2019-05-12T09:50:46.320Z,80.07
2019-05-12T09:53:14.540Z,79.72
2019-05-12T09:55:43.872Z,78.05
2019-05-12T09:58:20.721Z,78.09
2019-05-12T10:00:43.921Z,78.01
2019-05-12T10:03:13.843Z,77.79
2019-05-12T10:05:44.247Z,77.26
2019-05-12T10:08:13.901Z,77.13
2019-05-12T10:10:47.025Z,76.93
2019-05-12T10:13:15.109Z,76.56
2019-05-12T10:15:43.742Z,75.81
2019-05-12T10:18:14.325Z,74.97
2019-05-12T10:20:44.096Z,75.75
2019-05-12T10:23:18.613Z,75.25
2019-05-12T10:25:44.535Z,74.44
2019-05-12T10:28:16.047Z,74.51
2019-05-12T10:30:47.087Z,74.08
2019-05-12T10:33:14.269Z,74.07
2019-05-12T10:35:43.837Z,72.54
2019-05-12T10:38:13.654Z,72.21
2019-05-12T10:40:44.473Z,71.22
2019-05-12T10:43:34.300Z,70.80
2019-05-12T10:46:04.229Z,70.30
2019-05-12T10:48:33.882Z,70.68
2019-05-12T10:51:03.624Z,70.42
2019-05-12T10:53:34.119Z,70.58
2019-05-12T10:56:02.521Z,69.10
2019-05-12T10:58:31.024Z,69.21
2019-05-12T11:01:05.309Z,67.92
2019-05-12T11:03:29.885Z,65.75
2019-05-12T11:06:02.627Z,65.79
2019-05-12T11:08:29.023Z,66.12
2019-05-12T11:11:01.090Z,65.06
2019-05-12T11:13:27.950Z,65.51
2019-05-12T11:15:56.633Z,62.50
2019-05-12T11:18:30.316Z,59.35
2019-05-12T11:20:55.588Z,60.73
2019-05-12T11:23:24.658Z,59.02
2019-05-12T11:25:53.622Z,57.79
2019-05-12T11:28:24.500Z,57.51
2019-05-12T11:30:52.845Z,57.18
2019-05-12T11:33:23.667Z,57.47
2019-05-12T11:35:54.142Z,56.56
2019-05-12T11:38:24.421Z,56.88
2019-05-12T11:40:53.804Z,55.94
2019-05-12T11:43:24.583Z,55.36
2019-05-12T11:45:53.469Z,50.81
2019-05-12T11:48:23.611Z,53.18
2019-05-12T11:50:54.565Z,53.62
2019-05-12T11:53:30.362Z,50.33
2019-05-12T11:55:54.293Z,51.32
2019-05-12T11:58:23.615Z,51.72
2019-05-12T12:00:58.775Z,52.34
2019-05-12T12:03:24.636Z,51.24
2019-05-12T12:05:54.739Z,51.25
2019-05-12T12:08:26.388Z,51.63
2019-05-12T12:10:54.253Z,51.62
2019-05-12T12:13:28.414Z,52.24
2019-05-12T12:15:53.366Z,52.64
2019-05-12T12:18:23.591Z,51.83
2019-05-12T12:20:57.157Z,52.62
2019-05-12T12:23:22.560Z,52.25
2019-05-12T12:25:53.270Z,52.40
2019-05-12T12:28:24.017Z,52.36
2019-05-12T12:30:56.904Z,51.54
2019-05-12T12:33:23.464Z,51.33
2019-05-12T12:35:56.775Z,51.73
2019-05-12T12:38:22.619Z,51.85
2019-05-12T12:40:53.400Z,51.57
2019-05-12T12:43:21.386Z,50.81
2019-05-12T12:45:54.483Z,49.94
2019-05-12T12:48:27.709Z,49.88
2019-05-12T12:50:53.551Z,50.21
2019-05-12T12:53:23.860Z,48.93
2019-05-12T12:55:53.811Z,49.67
2019-05-12T12:58:26.941Z,49.67
2019-05-12T13:00:56.644Z,49.36
2019-05-12T13:03:25.695Z,49.78
2019-05-12T13:05:54.230Z,49.27
2019-05-12T13:08:24.684Z,48.59
2019-05-12T13:10:54.257Z,48.46
2019-05-12T13:13:24.517Z,48.00
2019-05-12T13:15:53.649Z,48.91
2019-05-12T13:18:32.052Z,48.73
2019-05-12T13:20:54.089Z,48.44
2019-05-12T13:23:34.718Z,48.90
2019-05-12T13:25:54.752Z,49.21
2019-05-12T13:28:25.928Z,49.33
2019-05-12T13:31:07.618Z,49.33
2019-05-12T13:33:24.457Z,49.52
2019-05-12T13:35:55.876Z,49.81
2019-05-12T13:38:23.791Z,49.72
2019-05-12T13:40:54.096Z,50.07
2019-05-12T13:43:23.739Z,50.92
2019-05-12T13:45:53.517Z,50.84
2019-05-12T13:48:24.000Z,50.61
2019-05-12T13:50:54.384Z,51.49
2019-05-12T13:53:24.390Z,51.10
2019-05-12T13:55:54.276Z,50.21
2019-05-12T13:58:28.348Z,52.55
2019-05-12T14:01:10.493Z,51.79
2019-05-12T14:03:27.478Z,51.15
2019-05-12T14:05:55.240Z,52.65
2019-05-12T14:08:25.274Z,53.97
2019-05-12T14:10:59.205Z,54.37
2019-05-12T14:13:24.656Z,55.73
2019-05-12T14:15:53.792Z,56.26
2019-05-12T14:18:22.570Z,57.42
2019-05-12T14:20:58.504Z,58.28
2019-05-12T14:23:23.821Z,59.27
2019-05-12T14:25:54.086Z,60.30
2019-05-12T14:28:23.448Z,61.04
2019-05-12T14:30:54.407Z,61.95
2019-05-12T14:33:24.637Z,62.54
2019-05-12T14:35:53.710Z,63.62
2019-05-12T14:38:27.420Z,64.49
2019-05-12T14:40:53.639Z,64.74
2019-05-12T14:43:24.064Z,65.11
2019-05-12T14:45:54.114Z,65.66
2019-05-12T14:48:24.050Z,66.02
2019-05-12T14:50:53.541Z,66.17
2019-05-12T14:53:23.720Z,66.49
2019-05-12T14:55:53.574Z,66.85
2019-05-12T14:58:23.728Z,66.94
2019-05-12T15:00:56.219Z,66.49
2019-05-12T15:03:24.172Z,67.36
2019-05-12T15:05:54.487Z,66.95
2019-05-12T15:08:35.586Z,66.89
2019-05-12T15:10:53.589Z,67.09
2019-05-12T15:13:24.029Z,67.40
2019-05-12T15:15:56.070Z,67.68
2019-05-12T15:18:23.047Z,67.78
2019-05-12T15:20:51.834Z,68.14
2019-05-12T15:23:23.835Z,68.65
2019-05-12T15:25:53.778Z,68.53
2019-05-12T15:28:23.617Z,68.65
2019-05-12T15:30:54.198Z,68.90
2019-05-12T15:33:24.379Z,69.08
2019-05-12T15:35:54.644Z,68.98
2019-05-12T15:38:23.993Z,68.71
2019-05-12T15:40:53.776Z,68.41
2019-05-12T15:43:24.353Z,67.93
2019-05-12T15:45:57.381Z,68.66
2019-05-12T15:48:25.946Z,68.37
2019-05-12T15:50:54.104Z,68.75
2019-05-12T15:53:26.841Z,69.53
2019-05-12T15:55:54.273Z,70.10
2019-05-12T15:58:24.798Z,69.78
2019-05-12T16:00:57.654Z,69.42
2019-05-12T16:03:26.546Z,69.75
2019-05-12T16:05:55.592Z,69.50
2019-05-12T16:08:24.542Z,70.20
2019-05-12T16:10:53.568Z,70.71
2019-05-12T16:13:24.372Z,70.66
2019-05-12T16:15:55.703Z,71.21
2019-05-12T16:18:23.479Z,71.31
2019-05-12T16:20:53.753Z,71.64
2019-05-12T16:23:29.870Z,72.74
2019-05-12T16:25:54.398Z,72.30
2019-05-12T16:28:26.370Z,72.46
2019-05-12T16:30:59.013Z,73.38
2019-05-12T16:33:23.572Z,73.60
2019-05-12T16:35:54.398Z,74.01
2019-05-12T16:38:23.643Z,74.23
2019-05-12T16:40:53.942Z,75.24
2019-05-12T16:43:23.797Z,75.47
2019-05-12T16:45:53.776Z,76.11
2019-05-12T16:48:30.410Z,76.30
2019-05-12T16:50:53.019Z,76.77
2019-05-12T16:53:27.314Z,76.94
2019-05-12T16:55:53.245Z,76.77
2019-05-12T16:58:24.410Z,76.83
2019-05-12T17:00:53.400Z,76.60
2019-05-12T17:03:23.763Z,76.45
2019-05-12T17:05:55.983Z,76.89
2019-05-12T17:08:24.093Z,76.82
2019-05-12T17:11:01.163Z,77.08
2019-05-12T17:13:23.716Z,77.00
2019-05-12T17:15:55.291Z,77.28
2019-05-12T17:18:24.666Z,76.91
2019-05-12T17:20:54.547Z,76.86
2019-05-12T17:23:24.575Z,76.73
2019-05-12T17:25:53.449Z,77.05
2019-05-12T17:28:23.872Z,77.29
2019-05-12T17:30:54.387Z,77.46
2019-05-12T17:33:27.439Z,77.62
2019-05-12T17:35:53.482Z,78.13
2019-05-12T17:38:25.069Z,78.16
2019-05-12T17:40:58.871Z,78.35
2019-05-12T17:43:23.298Z,78.25
2019-05-12T17:45:56.939Z,78.48
2019-05-12T17:48:23.391Z,78.62
2019-05-12T17:50:53.979Z,78.94
2019-05-12T17:53:24.041Z,79.10
2019-05-12T17:55:54.028Z,79.59
2019-05-12T17:58:24.234Z,79.75
2019-05-12T18:00:53.143Z,79.77
2019-05-12T18:03:25.382Z,79.62
2019-05-12T18:05:53.434Z,79.48
2019-05-12T18:08:23.972Z,79.31
2019-05-12T18:10:54.462Z,79.58
2019-05-12T18:13:24.986Z,79.94
2019-05-12T18:15:53.689Z,79.93
2019-05-12T18:18:24.116Z,79.94
2019-05-12T18:20:52.601Z,80.16
2019-05-12T18:23:26.182Z,80.09
2019-05-12T18:25:53.548Z,80.28
2019-05-12T18:28:27.656Z,80.55
2019-05-12T18:30:53.854Z,80.80
2019-05-12T18:33:33.558Z,80.59
2019-05-12T18:35:54.532Z,80.73
2019-05-12T18:38:26.655Z,80.73
2019-05-12T18:40:54.557Z,80.83
2019-05-12T18:43:24.327Z,80.74
2019-05-12T18:45:57.133Z,80.84
2019-05-12T18:48:25.249Z,80.73
2019-05-12T18:50:53.781Z,80.85
2019-05-12T18:53:30.284Z,81.00
2019-05-12T18:55:53.893Z,80.96
2019-05-12T18:58:30.562Z,81.12
2019-05-12T19:00:53.970Z,80.94
2019-05-12T19:03:22.756Z,81.12
2019-05-12T19:05:51.366Z,80.85
2019-05-12T19:08:20.519Z,80.74
2019-05-12T19:10:51.627Z,80.88
2019-05-12T19:13:20.062Z,81.23
2019-05-12T19:15:52.793Z,81.51
2019-05-12T19:18:24.329Z,81.02
2019-05-12T19:20:49.721Z,81.08
2019-05-12T19:23:18.364Z,80.96
2019-05-12T19:25:47.164Z,81.14
2019-05-12T19:28:15.712Z,80.96
2019-05-12T19:30:44.305Z,81.17
2019-05-12T19:33:13.667Z,81.51
2019-05-12T19:35:42.842Z,81.17
2019-05-12T19:38:15.062Z,81.33
2019-05-12T19:40:47.315Z,81.69
2019-05-12T19:43:14.111Z,81.38
2019-05-12T19:45:43.583Z,81.64
2019-05-12T19:48:23.873Z,81.58
2019-05-12T19:50:51.957Z,82.14
2019-05-12T19:53:16.136Z,81.50
2019-05-12T19:55:44.763Z,81.67
2019-05-12T19:58:13.388Z,81.59
2019-05-12T20:00:43.811Z,81.56
2019-05-12T20:03:13.912Z,82.11
2019-05-12T20:05:43.459Z,81.75
2019-05-12T20:08:13.666Z,81.79
2019-05-12T20:10:49.260Z,81.81
2019-05-12T20:13:13.684Z,81.85
2019-05-12T20:15:43.690Z,82.03
2019-05-12T20:18:14.708Z,81.82
2019-05-12T20:20:44.833Z,81.78
2019-05-12T20:23:14.292Z,82.11
2019-05-12T20:25:44.210Z,82.04
2019-05-12T20:28:14.516Z,82.48
2019-05-12T20:30:44.019Z,82.24
2019-05-12T20:33:13.781Z,82.27
2019-05-12T20:35:47.393Z,82.27
2019-05-12T20:38:14.854Z,82.42
2019-05-12T20:40:43.438Z,82.77
2019-05-12T20:43:14.627Z,82.96
2019-05-12T20:45:45.697Z,83.15
2019-05-12T20:48:19.334Z,83.68
2019-05-12T20:50:44.860Z,83.43
2019-05-12T20:53:14.365Z,83.40
2019-05-12T20:55:44.336Z,83.49
2019-05-12T20:58:13.696Z,83.32
2019-05-12T21:00:49.820Z,83.44
2019-05-12T21:03:14.771Z,83.55
2019-05-12T21:05:43.444Z,83.66
2019-05-12T21:08:15.123Z,83.54
2019-05-12T21:10:43.752Z,83.35
2019-05-12T21:13:14.711Z,83.43
2019-05-12T21:15:45.673Z,83.61
2019-05-12T21:18:14.713Z,83.71
2019-05-12T21:20:46.431Z,83.70
2019-05-12T21:23:13.968Z,83.79
2019-05-12T21:25:43.854Z,84.00
2019-05-12T21:28:14.900Z,84.16
2019-05-12T21:30:48.179Z,84.23
2019-05-12T21:33:14.771Z,84.29
2019-05-12T21:35:46.123Z,84.33
2019-05-12T21:38:18.914Z,85.10
2019-05-12T21:40:44.391Z,84.64
2019-05-12T21:43:13.527Z,84.73
2019-05-12T21:45:42.449Z,84.42
2019-05-12T21:48:15.027Z,84.82
2019-05-12T21:50:41.331Z,84.67
2019-05-12T21:53:15.903Z,84.80
2019-05-12T21:55:40.350Z,85.25
2019-05-12T21:58:12.125Z,85.03
2019-05-12T22:00:50.345Z,84.92
2019-05-12T22:03:16.542Z,84.51
2019-05-12T22:05:51.315Z,85.18
2019-05-12T22:08:22.074Z,84.77
2019-05-12T22:10:47.668Z,85.01
2019-05-12T22:13:18.159Z,84.93
2019-05-12T22:15:51.393Z,85.63
2019-05-12T22:18:16.947Z,85.36
2019-05-12T22:20:46.459Z,85.14
2019-05-12T22:23:15.398Z,84.94
2019-05-12T22:25:49.190Z,85.03
2019-05-12T22:28:14.349Z,85.30
2019-05-12T22:30:43.837Z,85.26
2019-05-12T22:33:13.857Z,85.37
2019-05-12T22:35:44.335Z,85.56
2019-05-12T22:38:16.619Z,85.52
2019-05-12T22:40:43.284Z,85.16
2019-05-12T22:43:14.053Z,85.23
2019-05-12T22:45:44.743Z,85.20
2019-05-12T22:48:12.452Z,85.62
2019-05-12T22:50:43.296Z,85.49
2019-05-12T22:53:13.372Z,85.71
2019-05-12T22:55:42.024Z,85.75
2019-05-12T22:58:20.661Z,85.97
2019-05-12T23:00:44.391Z,86.37
2019-05-12T23:03:14.960Z,86.33
2019-05-12T23:05:43.680Z,87.03
2019-05-12T23:08:14.052Z,86.85
2019-05-12T23:10:51.561Z,86.71
2019-05-12T23:13:13.586Z,86.54
2019-05-12T23:15:45.183Z,86.68
2019-05-12T23:18:13.784Z,87.07
2019-05-12T23:20:43.833Z,87.16
2019-05-12T23:23:15.391Z,86.89
2019-05-12T23:25:44.122Z,86.56
2019-05-12T23:28:12.898Z,86.42
2019-05-12T23:30:43.796Z,86.50
2019-05-12T23:33:13.927Z,87.07
2019-05-12T23:35:44.211Z,86.56
2019-05-12T23:38:18.856Z,86.84
2019-05-12T23:40:43.346Z,86.86
2019-05-12T23:43:14.341Z,87.21
2019-05-12T23:45:44.315Z,86.60
2019-05-12T23:48:14.275Z,86.68
2019-05-12T23:50:43.774Z,86.87
2019-05-12T23:53:14.033Z,86.69
2019-05-12T23:55:43.809Z,86.82
2019-05-12T23:58:14.479Z,86.78
